createdAt,value
2023-05-10T00:14:27.232Z,473
2023-05-10T00:34:27.492Z,438
2023-05-10T00:54:27.681Z,445
2023-05-10T01:14:27.645Z,451
2023-05-10T01:34:27.626Z,452
2023-05-10T01:54:27.592Z,453
2023-05-10T02:14:27.051Z,442
2023-05-10T02:34:27.543Z,430
2023-05-10T02:54:27.515Z,450
2023-05-10T03:14:27.478Z,437
2023-05-10T03:34:27.460Z,426
2023-05-10T04:14:27.429Z,432
2023-05-10T04:34:27.365Z,420
2023-05-10T05:34:27.300Z,438
2023-05-10T05:54:27.290Z,423
2023-05-10T06:14:27.261Z,414
2023-05-10T06:34:27.255Z,424
2023-05-10T11:14:26.660Z,377
2023-05-10T11:34:26.831Z,373
2023-05-10T11:54:26.801Z,367
2023-05-10T12:14:26.756Z,376
2023-05-10T12:34:26.531Z,368
2023-05-10T12:54:26.696Z,368
2023-05-10T13:14:26.472Z,360
2023-05-10T13:34:26.661Z,358
2023-05-10T13:54:26.443Z,361
2023-05-10T14:14:26.581Z,359
2023-05-10T14:34:26.575Z,361
2023-05-10T14:54:26.554Z,356
2023-05-10T15:14:26.488Z,355
2023-05-10T15:34:26.290Z,355
2023-05-10T15:54:26.319Z,361
2023-05-10T16:14:26.428Z,362
2023-05-10T16:34:26.384Z,358
2023-05-10T16:54:26.379Z,355
2023-05-10T17:14:26.357Z,348
2023-05-10T17:34:26.302Z,358
2023-05-10T17:54:26.298Z,363
2023-05-10T18:14:36.405Z,357
2023-05-10T18:34:26.250Z,362
2023-05-10T18:54:25.714Z,374
2023-05-10T19:54:26.124Z,450
2023-05-10T20:14:26.110Z,417
2023-05-10T20:54:26.031Z,366
2023-05-10T21:34:25.809Z,386
2023-05-10T21:54:25.971Z,438
2023-05-10T22:14:25.941Z,424
2023-05-10T22:34:25.929Z,426
2023-05-10T22:54:25.383Z,423
2023-05-10T23:14:25.861Z,422
2023-05-10T23:34:25.846Z,428
2023-05-10T23:54:25.832Z,416
